Time;durP1;ratioP1;P1;durP2;ratioP2;P2;SDS_P1;SDS_P2;PMS_P1;PMS_P2;Temp;Humidity;BMP_temperature;BMP_pressure;BME280_temperature;BME280_humidity;BME280_pressure;Samples;Min_cycle;Max_cycle;Signal;HPM_P1;HPM_P2
2021/12/23 08:55:38;;;;;;;13.65;8.15;;;;;;;1.67;79.04;101037.50;5118738;27;20364;-72
2021/12/23 08:58:05;;;;;;;11.10;6.57;;;;;;;1.49;80.42;101034.78;5107165;28;20031;-72
2021/12/23 09:00:33;;;;;;;11.50;6.60;;;;;;;1.42;80.12;101030.75;5102015;27;20130;-73
2021/12/23 09:03:00;;;;;;;9.88;6.57;;;;;;;1.57;78.80;101027.56;5104784;27;20126;-73
2021/12/23 09:05:27;;;;;;;9.52;5.50;;;;;;;1.47;78.78;101021.06;5106169;28;20040;-74
2021/12/23 09:07:54;;;;;;;11.38;5.15;;;;;;;1.53;78.61;101013.91;5105884;28;20066;-72
2021/12/23 09:10:21;;;;;;;6.05;4.38;;;;;;;1.62;78.86;101013.56;5094649;28;20040;-71
2021/12/23 09:12:50;;;;;;;10.07;6.28;;;;;;;1.57;79.78;101007.69;5108459;28;20050;-72
2021/12/23 09:15:18;;;;;;;8.75;6.18;;;;;;;1.58;79.14;101013.72;5109795;28;20148;-71
2021/12/23 09:17:46;;;;;;;8.25;4.28;;;;;;;1.60;79.67;101005.81;5111653;27;20136;-72
2021/12/23 09:20:15;;;;;;;7.90;4.95;;;;;;;1.61;79.77;100989.41;5110073;28;20531;-68
2021/12/23 09:22:43;;;;;;;6.43;4.85;;;;;;;1.63;79.83;100992.78;5090207;28;20052;-67
2021/12/23 09:25:19;;;;;;;10.07;5.80;;;;;;;1.59;79.21;100990.38;5112859;28;20039;-70
2021/12/23 09:27:57;;;;;;;7.15;5.80;;;;;;;1.58;80.03;100986.94;5113002;28;20039;-67
2021/12/23 09:33:10;;;;;;;6.40;4.65;;;;;;;1.70;79.85;100993.38;5112279;28;20031;-67
2021/12/23 09:35:37;;;;;;;6.63;4.60;;;;;;;1.93;79.61;100990.72;5106848;28;20107;-70
2021/12/23 09:38:04;;;;;;;6.13;4.68;;;;;;;2.11;78.76;100992.56;5108063;28;20031;-67
2021/12/23 09:40:32;;;;;;;6.28;4.78;;;;;;;2.21;78.08;100993.91;5103658;28;20122;-67
2021/12/23 09:43:01;;;;;;;11.23;5.22;;;;;;;2.15;77.24;100994.97;5103225;28;20059;-68
2021/12/23 09:45:29;;;;;;;7.40;6.13;;;;;;;2.09;77.53;101000.41;5099001;28;20044;-69
2021/12/23 09:47:58;;;;;;;9.45;4.75;;;;;;;2.02;77.47;100991.19;5104679;28;20552;-68
2021/12/23 09:50:28;;;;;;;9.57;5.78;;;;;;;2.19;77.83;100993.09;5081565;28;20078;-68
2021/12/23 09:52:56;;;;;;;7.78;4.30;;;;;;;2.34;76.84;100982.94;5103642;27;20043;-70
2021/12/23 09:55:25;;;;;;;4.30;3.35;;;;;;;2.51;76.05;100981.31;5097526;28;20056;-68
2021/12/23 09:57:57;;;;;;;8.85;5.32;;;;;;;2.56;75.13;100981.13;5108661;28;20041;-69
2021/12/23 10:00:27;;;;;;;6.45;4.75;;;;;;;2.48;75.09;100984.03;5093844;28;20072;-72
2021/12/23 10:02:55;;;;;;;6.47;4.93;;;;;;;2.32;76.14;100979.59;5089362;28;20130;-68
2021/12/23 10:05:24;;;;;;;8.85;5.25;;;;;;;2.41;75.64;100971.41;5078827;28;20060;-72
2021/12/23 10:07:51;;;;;;;8.73;5.75;;;;;;;2.35;76.20;100968.22;5094652;28;20038;-71
2021/12/23 10:10:23;;;;;;;5.88;3.40;;;;;;;2.35;76.53;100961.28;5098479;28;20564;-72
2021/12/23 10:13:14;;;;;;;7.75;4.95;;;;;;;2.39;76.41;100952.50;5074966;28;20573;-72
2021/12/23 10:38:09;;;;;;;6.50;4.13;;;;;;;2.69;75.54;100894.09;5090123;28;20043;-71
2021/12/23 10:40:36;;;;;;;8.93;4.18;;;;;;;2.76;75.25;100892.91;5055563;28;20076;-72
2021/12/23 10:43:06;;;;;;;9.57;4.97;;;;;;;2.77;75.31;100898.06;5036993;28;20068;-70
2021/12/23 10:45:41;;;;;;;9.23;6.22;;;;;;;2.80;75.64;100899.66;5033600;28;20052;-71
2021/12/23 10:48:15;;;;;;;6.25;4.50;;;;;;;2.80;75.36;100889.28;5037616;28;20053;-67
2021/12/23 10:50:47;;;;;;;9.05;6.00;;;;;;;2.73;75.03;100883.53;5034576;28;20499;-70
2021/12/23 10:53:28;;;;;;;10.57;6.97;;;;;;;2.86;75.67;100886.41;5034265;28;20065;-70
2021/12/23 10:59:03;;;;;;;9.60;6.07;;;;;;;2.84;75.48;100860.53;5031103;28;20049;-74
2021/12/23 11:01:30;;;;;;;9.75;4.80;;;;;;;2.91;75.91;100863.72;5030184;28;20139;-72
2021/12/23 11:04:04;;;;;;;11.35;6.28;;;;;;;2.98;75.13;100857.31;5028335;28;20111;-72
2021/12/23 11:06:38;;;;;;;7.78;5.78;;;;;;;3.02;74.87;100848.47;5034237;28;20045;-73
2021/12/23 11:37:39;;;;;;;8.38;4.32;;;;;;;3.47;76.14;100785.66;5044001;28;20171;-72
2021/12/23 11:40:13;;;;;;;6.65;4.95;;;;;;;3.53;75.55;100777.56;5048964;28;20044;-71
2021/12/23 11:43:02;;;;;;;9.15;6.32;;;;;;;3.67;75.41;100766.47;5055715;28;20048;-72
2021/12/23 11:45:29;;;;;;;24.15;6.38;;;;;;;3.77;75.10;100759.91;5050109;28;20044;-74
2021/12/23 11:47:57;;;;;;;4.65;3.78;;;;;;;3.89;74.94;100767.91;5047932;28;20068;-73
2021/12/23 11:50:31;;;;;;;9.30;5.35;;;;;;;3.91;74.71;100758.25;5046561;28;20072;-73
2021/12/23 11:52:58;;;;;;;13.02;6.82;;;;;;;3.95;75.04;100752.81;5049907;28;20455;-71
2021/12/23 11:55:26;;;;;;;8.52;4.53;;;;;;;4.01;74.25;100751.66;5049794;28;20072;-71
2021/12/23 11:57:54;;;;;;;9.45;6.07;;;;;;;4.08;75.36;100751.28;5050049;28;20044;-72
2021/12/23 12:00:32;;;;;;;12.23;5.90;;;;;;;4.12;74.86;100752.78;5046990;28;20110;-72
2021/12/23 12:02:59;;;;;;;10.25;5.25;;;;;;;4.24;74.03;100754.75;5038569;28;20068;-71
2021/12/23 12:05:28;;;;;;;12.63;4.60;;;;;;;4.26;74.95;100739.91;5048973;28;20051;-73
2021/12/23 12:08:05;;;;;;;12.10;6.10;;;;;;;4.24;75.59;100739.13;5053734;28;20044;-74
2021/12/23 12:10:32;;;;;;;8.63;5.25;;;;;;;4.30;75.48;100732.78;5049900;28;20091;-71
2021/12/23 12:13:01;;;;;;;10.65;6.32;;;;;;;4.40;74.86;100728.72;5051895;28;20049;-71
2021/12/23 12:15:47;;;;;;;24.98;7.50;;;;;;;4.41;75.10;100720.88;5049835;28;20120;-73
2021/12/23 12:18:22;;;;;;;12.20;6.18;;;;;;;4.39;75.40;100716.69;5065858;28;20044;-72
2021/12/23 12:20:53;;;;;;;12.45;5.57;;;;;;;4.45;74.85;100718.94;5031121;28;20071;-72
2021/12/23 12:23:30;;;;;;;9.15;5.03;;;;;;;4.51;75.11;100705.59;5062883;28;20127;-71
2021/12/23 12:26:03;;;;;;;7.90;4.50;;;;;;;4.55;75.72;100699.31;5053552;28;20039;-70
2021/12/23 12:28:33;;;;;;;;;;;;;;;4.72;75.25;100678.41;5054384;28;20041;-73
2021/12/23 12:31:02;;;;;;;9.13;4.13;;;;;;;4.89;75.46;100681.72;5049609;28;19928;-71
2021/12/23 12:33:41;;;;;;;10.98;6.43;;;;;;;5.06;74.97;100673.78;5047128;28;20084;-72
2021/12/23 12:36:12;;;;;;;8.68;5.43;;;;;;;5.25;75.22;100674.41;5048931;28;20046;-73
2021/12/23 12:38:40;;;;;;;10.60;6.63;;;;;;;5.31;75.04;100667.03;5047227;28;20045;-71
2021/12/23 12:41:08;;;;;;;16.98;6.28;;;;;;;5.37;73.87;100656.28;5050348;28;20079;-72
2021/12/23 12:43:51;;;;;;;9.57;5.57;;;;;;;5.23;74.61;100648.44;5051750;28;20075;-72
2021/12/23 12:46:46;;;;;;;11.85;5.75;;;;;;;5.23;75.28;100642.41;5033743;28;20048;-73
2021/12/23 12:49:17;;;;;;;10.40;5.40;;;;;;;5.28;75.79;100638.59;5034149;28;20135;-70
2021/12/23 12:51:48;;;;;;;14.88;6.18;;;;;;;5.28;75.43;100633.38;5023023;28;20095;-69
2021/12/23 12:54:18;;;;;;;16.27;5.95;;;;;;;5.27;75.47;100631.72;5037856;28;20071;-70
2021/12/23 12:56:47;;;;;;;10.85;5.93;;;;;;;5.35;75.23;100631.25;5026119;28;20045;-71
2021/12/23 12:59:15;;;;;;;4.18;3.25;;;;;;;5.33;75.88;100631.34;5034608;28;20049;-70
2021/12/23 13:01:45;;;;;;;7.93;4.70;;;;;;;5.31;75.93;100622.78;5029450;28;20056;-73
2021/12/23 13:04:21;;;;;;;14.18;6.85;;;;;;;5.30;76.91;100609.84;5033749;28;20047;-69
2021/12/23 13:06:50;;;;;;;14.98;5.70;;;;;;;5.28;76.81;100615.16;5036334;28;20049;-71
2021/12/23 13:09:23;;;;;;;21.73;6.43;;;;;;;5.27;76.96;100616.09;5034073;28;20044;-69
2021/12/23 13:11:50;;;;;;;11.50;6.20;;;;;;;5.23;77.62;100609.38;5033386;28;20395;-70
2021/12/23 13:14:22;;;;;;;15.02;5.60;;;;;;;5.15;78.34;100595.97;5036148;28;20057;-70
2021/12/23 13:16:52;;;;;;;10.95;6.97;;;;;;;5.14;78.43;100586.47;5034397;28;20041;-70
2021/12/23 13:19:24;;;;;;;8.73;4.95;;;;;;;5.27;78.38;100595.25;5036557;28;20135;-70
2021/12/23 13:21:54;;;;;;;42.60;6.47;;;;;;;5.40;77.90;100588.38;5031576;28;20087;-72
2021/12/23 13:24:22;;;;;;;15.30;6.30;;;;;;;5.46;77.77;100590.59;5034909;28;20078;-72
2021/12/23 13:26:49;;;;;;;17.13;5.43;;;;;;;5.59;77.33;100594.97;5031817;28;20041;-72
2021/12/23 13:29:17;;;;;;;20.20;4.00;;;;;;;5.73;76.95;100583.69;5035177;28;20044;-70
2021/12/23 13:31:46;;;;;;;20.20;4.97;;;;;;;5.86;76.36;100584.66;5030436;28;20049;-71
2021/12/23 13:34:18;;;;;;;14.60;5.22;;;;;;;5.88;76.75;100569.75;5034275;28;20057;-70
2021/12/23 13:36:46;;;;;;;11.52;5.72;;;;;;;5.92;76.88;100564.25;5036989;28;20586;-70
2021/12/23 13:39:17;;;;;;;18.02;5.00;;;;;;;5.89;76.70;100563.59;5036279;28;20041;-73
2021/12/23 13:41:48;;;;;;;12.20;5.03;;;;;;;5.87;76.95;100560.25;5033120;28;20496;-71
2021/12/23 13:44:24;;;;;;;11.20;6.07;;;;;;;5.85;77.13;100549.09;5034751;28;20041;-70
2021/12/23 13:47:00;;;;;;;13.20;6.93;;;;;;;5.74;78.45;100538.47;5027688;28;20045;-73
2021/12/23 13:49:38;;;;;;;12.18;6.18;;;;;;;5.72;78.95;100535.97;5030909;28;20041;-71
2021/12/23 13:52:07;;;;;;;8.63;5.20;;;;;;;5.63;78.82;100530.47;5043355;28;20068;-71
2021/12/23 13:54:38;;;;;;;10.75;5.90;;;;;;;5.62;79.59;100526.22;5035566;28;20174;-71
2021/12/23 13:57:10;;;;;;;10.85;6.90;;;;;;;5.64;79.80;100535.63;5032918;28;20045;-70
2021/12/23 13:59:37;;;;;;;11.95;5.22;;;;;;;5.61;79.93;100548.81;5046537;28;20067;-69
2021/12/23 14:02:07;;;;;;;9.77;5.07;;;;;;;5.68;80.40;100554.50;5048483;28;20037;-70
2021/12/23 14:04:46;;;;;;;12.00;6.45;;;;;;;5.74;80.09;100552.34;5058057;28;20037;-72
2021/12/23 14:07:19;;;;;;;9.18;4.82;;;;;;;5.80;79.69;100548.53;5038419;28;20037;-73
2021/12/23 14:09:47;;;;;;;;;;;;;;;5.85;79.15;100552.53;5038148;28;20098;-73
2021/12/23 14:12:16;;;;;;;10.05;5.15;;;;;;;5.88;79.95;100552.34;5037267;28;19959;-71
2021/12/23 14:14:58;;;;;;;9.70;4.82;;;;;;;5.86;79.17;100537.75;5029833;28;20134;-72
2021/12/23 14:17:32;;;;;;;8.13;4.20;;;;;;;5.86;80.29;100535.16;5040082;28;20051;-72
2021/12/23 14:25:45;;;;;;;10.10;5.50;;;;;;;5.58;83.01;100533.38;5032202;28;20072;-72
2021/12/23 14:28:13;;;;;;;9.27;4.95;;;;;;;5.56;83.65;100523.97;5034895;28;20049;-73
2021/12/23 14:30:44;;;;;;;9.77;5.25;;;;;;;5.53;83.48;100525.00;5031353;28;20044;-73
2021/12/23 14:33:13;;;;;;;17.30;5.65;;;;;;;5.58;83.44;100537.75;5033272;28;20053;-71
2021/12/23 14:35:40;;;;;;;20.48;5.00;;;;;;;5.58;82.66;100542.97;5034161;28;20054;-73
2021/12/23 14:38:07;;;;;;;13.68;5.32;;;;;;;5.55;83.05;100544.00;5033868;28;20045;-73
2021/12/23 14:40:34;;;;;;;11.45;4.55;;;;;;;5.58;82.96;100542.97;5027979;28;20068;-71
2021/12/23 14:43:03;;;;;;;13.80;6.97;;;;;;;5.56;83.25;100534.41;5026015;28;20128;-71
2021/12/23 14:45:30;;;;;;;7.60;4.45;;;;;;;5.56;83.49;100544.81;5035187;28;20051;-71
2021/12/23 14:48:08;;;;;;;15.80;6.55;;;;;;;5.55;83.71;100548.34;5020966;28;20052;-72
2021/12/23 14:50:38;;;;;;;8.10;4.88;;;;;;;5.53;83.46;100545.03;5032041;28;20033;-72
2021/12/23 14:53:18;;;;;;;8.38;4.07;;;;;;;5.49;83.77;100551.34;5041850;28;20104;-70
2021/12/23 14:55:54;;;;;;;5.50;3.50;;;;;;;5.55;84.35;100548.34;5026337;28;20055;-71
2021/12/23 14:58:22;;;;;;;17.38;7.32;;;;;;;5.53;83.75;100540.63;5027324;28;20124;-72
2021/12/23 15:00:50;;;;;;;10.02;4.80;;;;;;;5.49;84.00;100533.09;5031688;28;20051;-70
2021/12/23 15:03:20;;;;;;;7.88;4.68;;;;;;;5.42;84.43;100542.22;5034134;28;20041;-70
2021/12/23 15:05:48;;;;;;;10.50;5.65;;;;;;;5.44;84.90;100548.19;5032480;28;20447;-71
2021/12/23 15:08:20;;;;;;;10.70;5.18;;;;;;;5.39;85.06;100537.19;5033517;28;20502;-71
2021/12/23 15:10:48;;;;;;;9.63;5.25;;;;;;;5.44;84.91;100544.72;5028700;28;20741;-72
2021/12/23 15:13:32;;;;;;;18.65;6.50;;;;;;;5.38;85.11;100543.34;5032373;28;20501;-72
2021/12/23 15:16:13;;;;;;;20.60;3.72;;;;;;;5.40;85.46;100541.47;5033984;28;20053;-74
2021/12/23 15:21:33;;;;;;;10.98;6.68;;;;;;;5.38;86.03;100530.31;5022335;28;20065;-71
2021/12/23 15:24:02;;;;;;;8.18;5.93;;;;;;;5.34;85.67;100534.06;5046361;28;20076;-71
2021/12/23 15:26:33;;;;;;;10.52;5.50;;;;;;;5.32;85.81;100533.31;5025467;28;20053;-71
2021/12/23 15:29:13;;;;;;;10.13;4.68;;;;;;;5.32;86.59;100538.50;5027810;28;20067;-71
2021/12/23 15:31:41;;;;;;;7.88;4.70;;;;;;;5.32;86.68;100535.09;5032252;28;20037;-73
2021/12/23 15:34:10;;;;;;;7.03;4.30;;;;;;;5.36;86.48;100537.41;5027916;28;20064;-71
2021/12/23 15:36:38;;;;;;;9.95;5.70;;;;;;;5.36;86.52;100537.41;5032249;28;20136;-71
2021/12/23 15:39:15;;;;;;;11.05;5.35;;;;;;;5.34;86.64;100534.06;5030001;28;20041;-72
2021/12/23 15:41:44;;;;;;;9.68;5.10;;;;;;;5.28;86.72;100529.22;5029292;28;20052;-71
2021/12/23 15:44:12;;;;;;;8.70;5.63;;;;;;;5.28;87.30;100542.25;5025163;28;20041;-72
2021/12/23 15:46:39;;;;;;;7.25;4.50;;;;;;;5.33;87.98;100555.81;5030880;28;20132;-72
2021/12/23 15:49:06;;;;;;;10.88;6.15;;;;;;;5.36;87.43;100553.03;5035988;28;20041;-71
2021/12/23 15:51:35;;;;;;;20.88;5.90;;;;;;;5.38;87.66;100555.53;5032168;28;20102;-70
2021/12/23 15:54:01;;;;;;;8.52;4.38;;;;;;;5.41;87.68;100557.97;5035010;28;20048;-72
2021/12/23 15:56:28;;;;;;;4.38;3.10;;;;;;;5.43;87.93;100554.34;5033595;28;20049;-72
2021/12/23 15:58:55;;;;;;;12.63;5.57;;;;;;;5.43;88.05;100554.34;5033880;28;20033;-73
2021/12/23 16:01:24;;;;;;;12.45;5.95;;;;;;;5.40;88.06;100548.47;5033323;28;20055;-73
2021/12/23 16:03:54;;;;;;;12.95;6.47;;;;;;;5.39;88.73;100544.19;5033860;28;20131;-71
2021/12/23 16:09:05;;;;;;;7.55;4.15;;;;;;;5.38;89.39;100573.78;5036247;28;20041;-72
2021/12/23 16:11:38;;;;;;;9.48;4.78;;;;;;;5.38;89.02;100561.56;5033973;28;20492;-71
2021/12/23 16:14:07;;;;;;;6.93;4.68;;;;;;;5.40;89.31;100564.91;5040458;28;20366;-72
2021/12/23 16:16:36;;;;;;;8.02;4.03;;;;;;;5.45;89.29;100567.25;5049490;28;20064;-70
2021/12/23 16:19:03;;;;;;;12.40;6.90;;;;;;;5.39;89.88;100565.03;5045759;28;20053;-71
2021/12/23 16:21:29;;;;;;;17.02;5.93;;;;;;;5.37;90.06;100572.94;5042186;28;20044;-71
2021/12/23 16:23:56;;;;;;;12.30;6.07;;;;;;;5.38;89.94;100569.38;5042194;28;20057;-72
2021/12/23 16:26:23;;;;;;;8.23;5.60;;;;;;;5.34;90.38;100567.06;5039609;28;20052;-71
2021/12/23 16:28:56;;;;;;;7.28;5.10;;;;;;;5.35;90.73;100556.56;5040458;28;20116;-71
2021/12/23 16:31:24;;;;;;;12.80;6.28;;;;;;;5.33;90.97;100563.63;5038716;28;20072;-74
2021/12/23 16:33:52;;;;;;;12.75;6.28;;;;;;;5.36;91.13;100563.44;5036237;28;20061;-71
2021/12/23 16:36:19;;;;;;;29.10;7.97;;;;;;;5.36;91.40;100555.63;5039526;28;20045;-71
2021/12/23 16:38:47;;;;;;;14.82;7.10;;;;;;;5.39;91.30;100573.66;5047890;28;20071;-70
2021/12/23 16:41:14;;;;;;;12.65;6.10;;;;;;;5.38;91.23;100568.56;5052293;28;20124;-70
2021/12/23 16:43:41;;;;;;;14.25;6.22;;;;;;;5.38;91.15;100566.78;5058045;28;20021;-71
2021/12/23 16:46:08;;;;;;;14.60;6.50;;;;;;;5.40;91.92;100551.06;5031474;28;20036;-72
2021/12/23 16:48:35;;;;;;;12.55;6.47;;;;;;;5.33;92.24;100558.41;5036610;28;20076;-72
2021/12/23 16:51:05;;;;;;;9.05;4.95;;;;;;;5.35;91.77;100561.78;5035566;28;20141;-72
2021/12/23 16:53:33;;;;;;;17.20;4.75;;;;;;;5.31;91.79;100562.06;5036253;28;20052;-71
2021/12/23 16:56:15;;;;;;;9.02;3.90;;;;;;;5.30;92.46;100560.38;5029293;28;20041;-71
2021/12/23 16:58:44;;;;;;;8.48;5.03;;;;;;;5.25;92.27;100550.22;5035822;28;20115;-74
2021/12/23 17:01:12;;;;;;;13.88;6.47;;;;;;;5.25;92.36;100560.66;5033231;28;20057;-71
2021/12/23 17:03:41;;;;;;;7.78;4.80;;;;;;;5.25;92.74;100552.84;5035650;28;20306;-71
2021/12/23 17:06:10;;;;;;;15.13;6.55;;;;;;;5.23;92.86;100546.88;5035022;28;20041;-73
2021/12/23 17:08:37;;;;;;;27.70;6.78;;;;;;;5.21;92.56;100545.31;5034055;28;20142;-71
2021/12/23 17:11:05;;;;;;;15.15;8.20;;;;;;;5.23;92.46;100539.06;5033873;28;20047;-71
2021/12/23 17:13:35;;;;;;;7.72;4.80;;;;;;;5.23;92.71;100539.06;5021528;28;20049;-72
2021/12/23 17:16:02;;;;;;;14.38;6.15;;;;;;;5.23;93.37;100533.84;5035339;28;20048;-74
2021/12/23 17:18:36;;;;;;;14.48;7.93;;;;;;;5.20;93.35;100547.09;5033238;28;20215;-73
2021/12/23 17:23:51;;;;;;;9.65;5.05;;;;;;;5.20;93.37;100541.03;5035829;28;20037;-73
2021/12/23 17:26:18;;;;;;;14.63;7.68;;;;;;;5.17;92.89;100544.66;5034996;28;20045;-71
2021/12/23 17:28:44;;;;;;;10.82;6.47;;;;;;;5.17;93.24;100546.44;5036825;28;20058;-73
2021/12/23 17:31:11;;;;;;;8.98;6.97;;;;;;;5.17;93.72;100552.47;5037502;28;20093;-73
2021/12/23 17:33:40;;;;;;;9.50;5.22;;;;;;;5.17;93.73;100542.03;5035561;28;20117;-72
2021/12/23 17:36:06;;;;;;;10.90;6.45;;;;;;;5.16;93.71;100548.19;5037726;28;20041;-74
2021/12/23 17:38:35;;;;;;;15.02;6.80;;;;;;;5.13;93.54;100540.53;5035092;28;20045;-73
2021/12/23 17:41:03;;;;;;;22.30;8.18;;;;;;;5.13;93.43;100542.31;5035684;28;20037;-74
2021/12/23 17:43:29;;;;;;;11.40;5.15;;;;;;;5.15;93.49;100541.28;5036415;28;20116;-72
2021/12/23 17:45:58;;;;;;;15.75;6.63;;;;;;;5.14;94.13;100539.63;5034701;28;20069;-72
2021/12/23 17:48:25;;;;;;;13.65;7.65;;;;;;;5.14;94.15;100526.59;5031150;28;20120;-72
2021/12/23 17:50:53;;;;;;;17.77;6.63;;;;;;;5.16;94.21;100535.16;5034776;28;20675;-73
2021/12/23 17:53:20;;;;;;;12.45;5.72;;;;;;;5.14;94.38;100542.22;5043277;28;20049;-71
2021/12/23 17:55:47;;;;;;;13.82;5.45;;;;;;;5.11;93.96;100537.22;5032777;28;20127;-72
2021/12/23 17:58:18;;;;;;;17.33;7.32;;;;;;;5.17;93.96;100534.22;5038900;28;20044;-72
2021/12/23 18:00:47;;;;;;;9.90;5.40;;;;;;;5.17;93.91;100542.03;5032139;28;20048;-72
2021/12/23 18:03:14;;;;;;;20.55;8.85;;;;;;;5.22;94.15;100547.81;5038574;28;20044;-74
2021/12/23 18:05:43;;;;;;;11.10;6.65;;;;;;;5.23;93.76;100538.25;5045804;28;20033;-72
2021/12/23 18:08:13;;;;;;;13.00;7.00;;;;;;;5.21;93.88;100521.88;5039874;28;20053;-73
2021/12/23 18:10:44;;;;;;;15.25;7.53;;;;;;;5.22;94.73;100513.13;5042667;28;20041;-72
2021/12/23 18:13:20;;;;;;;11.02;6.63;;;;;;;5.10;95.53;100511.25;5046866;28;20041;-72
2021/12/23 18:15:47;;;;;;;14.52;7.20;;;;;;;5.10;95.67;100511.25;5049442;28;20193;-72
2021/12/23 18:18:14;;;;;;;17.63;6.10;;;;;;;5.09;96.29;100501.81;5045694;28;20677;-73
2021/12/23 18:20:41;;;;;;;12.10;7.60;;;;;;;5.04;95.94;100493.41;5043454;28;20041;-72
2021/12/23 18:23:10;;;;;;;7.72;4.45;;;;;;;5.03;96.78;100492.59;5034650;28;20045;-72
2021/12/23 18:25:39;;;;;;;11.52;7.03;;;;;;;5.02;97.19;100485.72;5030602;28;20041;-72
2021/12/23 18:28:08;;;;;;;16.52;6.97;;;;;;;5.02;96.87;100484.84;5035993;28;20094;-74
2021/12/23 18:30:36;;;;;;;7.25;4.30;;;;;;;5.01;97.07;100478.81;5033866;28;20073;-71
2021/12/23 18:33:04;;;;;;;9.05;5.07;;;;;;;5.01;97.31;100488.38;5035683;28;20053;-71
2021/12/23 18:35:35;;;;;;;14.68;6.50;;;;;;;5.01;97.92;100489.22;5033557;28;20053;-72
2021/12/23 18:38:05;;;;;;;20.27;7.53;;;;;;;4.98;97.57;100486.81;5021320;28;20056;-72
2021/12/23 18:40:35;;;;;;;14.48;5.97;;;;;;;4.98;97.71;100473.78;5031712;28;20041;-73
2021/12/23 18:43:05;;;;;;;6.68;4.05;;;;;;;5.01;97.89;100468.41;5036493;28;20063;-72
2021/12/23 18:45:32;;;;;;;18.10;7.82;;;;;;;5.00;98.65;100468.50;5030778;28;20052;-72
2021/12/23 18:48:00;;;;;;;12.82;6.70;;;;;;;5.01;98.65;100471.00;5037260;28;20043;-73
2021/12/23 18:50:28;;;;;;;14.27;7.13;;;;;;;5.01;98.94;100464.94;5028099;28;20072;-73
2021/12/23 18:52:56;;;;;;;12.18;5.47;;;;;;;5.02;98.51;100449.25;5036834;28;20045;-72
2021/12/23 18:55:22;;;;;;;21.13;8.38;;;;;;;5.04;99.26;100441.34;5034429;28;20045;-73
2021/12/23 18:57:49;;;;;;;8.98;5.40;;;;;;;5.07;99.08;100442.00;5035340;28;20484;-73
2021/12/23 19:00:19;;;;;;;17.65;7.82;;;;;;;5.10;99.08;100441.81;5037006;28;20044;-74
2021/12/23 19:03:02;;;;;;;25.55;6.97;;;;;;;5.13;98.79;100439.00;5033891;28;20049;-71
2021/12/23 19:05:33;;;;;;;16.42;5.43;;;;;;;5.17;98.52;100437.91;5034473;28;20063;-73
2021/12/23 19:08:00;;;;;;;17.15;7.22;;;;;;;5.18;98.66;100428.31;5032475;28;20041;-72
2021/12/23 19:10:28;;;;;;;14.43;7.20;;;;;;;5.19;98.91;100423.03;5033121;28;20048;-73
2021/12/23 19:12:55;;;;;;;14.23;7.30;;;;;;;5.17;98.74;100413.66;5035186;28;20045;-73
2021/12/23 19:15:22;;;;;;;12.23;6.90;;;;;;;5.18;99.30;100417.91;5035396;28;20059;-72
2021/12/23 19:17:49;;;;;;;13.98;5.65;;;;;;;5.16;98.97;100415.41;5033447;28;20036;-74
2021/12/23 19:20:17;;;;;;;24.23;7.70;;;;;;;5.15;99.45;100418.09;5049990;28;20048;-72
2021/12/23 19:22:46;;;;;;;16.17;6.75;;;;;;;5.13;99.07;100415.56;5045914;28;20044;-72
2021/12/23 19:25:13;;;;;;;11.13;6.30;;;;;;;5.22;99.14;100412.41;5034129;28;20062;-74
2021/12/23 19:27:40;;;;;;;10.60;5.30;;;;;;;5.30;99.78;100417.97;5031097;28;20049;-72
2021/12/23 19:30:09;;;;;;;14.02;7.45;;;;;;;5.31;99.60;100411.81;5033301;28;20041;-74
2021/12/23 19:32:37;;;;;;;10.82;5.90;;;;;;;5.30;99.87;100402.34;5035389;28;20053;-73
2021/12/23 19:35:05;;;;;;;15.65;7.43;;;;;;;5.36;100.00;100398.53;5033477;28;20041;-73
2021/12/23 19:37:32;;;;;;;10.68;7.00;;;;;;;5.33;99.68;100394.34;5033973;28;20045;-74
2021/12/23 19:40:00;;;;;;;17.70;8.70;;;;;;;5.35;99.83;100392.50;5031073;28;20099;-72
2021/12/23 19:42:26;;;;;;;10.25;6.28;;;;;;;5.41;100.00;100389.50;5034272;28;20061;-74
2021/12/23 19:44:56;;;;;;;12.55;6.55;;;;;;;5.47;100.00;100385.66;5033566;28;20049;-73
2021/12/23 19:47:23;;;;;;;13.80;7.45;;;;;;;5.44;100.00;100378.88;5034673;28;20059;-74
2021/12/23 19:49:49;;;;;;;18.23;7.68;;;;;;;5.49;100.00;100395.03;5036910;28;20120;-73
2021/12/23 19:52:16;;;;;;;15.65;7.60;;;;;;;5.51;100.00;100390.56;5037726;28;20133;-73
2021/12/23 19:54:42;;;;;;;18.17;6.78;;;;;;;5.55;99.95;100397.25;5038752;28;20048;-74
2021/12/23 19:57:10;;;;;;;24.88;7.95;;;;;;;5.56;99.80;100410.19;5039976;28;20064;-74
2021/12/23 19:59:37;;;;;;;10.80;5.43;;;;;;;5.60;100.00;100403.84;5042534;28;20045;-74
2021/12/23 20:02:06;;;;;;;18.55;7.47;;;;;;;5.63;99.84;100413.22;5045466;28;20163;-73
2021/12/23 20:04:36;;;;;;;13.27;6.47;;;;;;;5.68;100.00;100398.16;5048105;28;20045;-73
2021/12/23 20:07:11;;;;;;;15.85;6.70;;;;;;;5.70;100.00;100404.94;5045145;28;20404;-73
2021/12/23 20:09:39;;;;;;;12.40;6.85;;;;;;;5.70;99.99;100401.50;5066111;28;20025;-73
2021/12/23 20:12:08;;;;;;;11.50;7.63;;;;;;;5.74;99.80;100392.53;5056366;28;20056;-72
2021/12/23 20:14:35;;;;;;;14.85;6.05;;;;;;;5.75;100.00;100389.00;5048202;28;20102;-72
2021/12/23 20:17:02;;;;;;;17.02;7.55;;;;;;;5.78;99.89;100389.66;5030431;28;20049;-71
2021/12/23 20:19:30;;;;;;;16.08;7.80;;;;;;;5.84;99.90;100389.25;5039513;28;20036;-75
2021/12/23 20:21:57;;;;;;;15.25;5.97;;;;;;;5.89;99.67;100396.78;5041850;28;20048;-72
2021/12/23 20:24:25;;;;;;;8.68;5.57;;;;;;;5.89;99.85;100392.41;5041013;28;20053;-72
2021/12/23 20:26:52;;;;;;;7.70;4.88;;;;;;;5.90;99.55;100393.25;5037737;28;20136;-73
2021/12/23 20:29:20;;;;;;;12.25;7.32;;;;;;;5.89;99.73;100391.56;5043558;28;20047;-71
2021/12/23 20:31:48;;;;;;;19.90;8.60;;;;;;;5.88;99.92;100390.75;5038614;28;20056;-73
2021/12/23 20:34:15;;;;;;;8.05;5.18;;;;;;;5.94;99.64;100386.91;5033332;28;20046;-72
2021/12/23 20:36:41;;;;;;;6.07;3.88;;;;;;;5.98;100.00;100385.75;5040021;28;20049;-73
2021/12/23 20:39:09;;;;;;;13.80;7.47;;;;;;;6.01;99.67;100380.34;5037587;28;20634;-73
2021/12/23 20:41:35;;;;;;;10.32;6.43;;;;;;;6.02;99.85;100389.84;5056364;28;20041;-72
2021/12/23 20:44:05;;;;;;;13.10;5.70;;;;;;;6.06;99.75;100383.47;5037181;28;20068;-72
2021/12/23 20:46:32;;;;;;;16.48;7.57;;;;;;;6.06;100.00;100386.94;5038377;28;20148;-72
2021/12/23 20:49:00;;;;;;;14.52;5.88;;;;;;;6.11;99.89;100394.44;5036227;28;20120;-72
2021/12/23 20:51:30;;;;;;;11.48;7.55;;;;;;;6.11;100.00;100387.44;5040007;28;20512;-71
2021/12/23 20:53:58;;;;;;;11.00;4.47;;;;;;;6.19;100.00;100379.13;5037838;28;20073;-74
2021/12/23 20:56:25;;;;;;;12.45;6.53;;;;;;;6.24;100.00;100379.63;5037137;28;20053;-72
2021/12/23 20:58:53;;;;;;;8.10;5.60;;;;;;;6.28;99.82;100373.28;5041296;28;20055;-73
2021/12/23 21:01:21;;;;;;;11.98;6.68;;;;;;;6.30;100.00;100372.25;5033920;28;20543;-71
2021/12/23 21:03:50;;;;;;;19.80;6.65;;;;;;;6.33;100.00;100368.59;5038030;28;20056;-72
2021/12/23 21:06:20;;;;;;;7.70;4.70;;;;;;;6.38;100.00;100360.34;5033666;28;20036;-72
2021/12/23 21:08:47;;;;;;;12.25;7.10;;;;;;;6.40;100.00;100355.84;5040011;28;20055;-75
2021/12/23 21:11:15;;;;;;;8.60;5.18;;;;;;;6.48;100.00;100360.56;5034954;28;20064;-74
2021/12/23 21:13:43;;;;;;;11.45;5.28;;;;;;;6.47;100.00;100354.50;5036819;28;20102;-73
2021/12/23 21:16:10;;;;;;;12.00;6.13;;;;;;;6.50;100.00;100353.44;5036848;28;20128;-71
2021/12/23 21:18:38;;;;;;;8.20;5.70;;;;;;;6.51;100.00;100350.75;5035045;28;20041;-72
2021/12/23 21:21:06;;;;;;;20.52;4.38;;;;;;;6.57;100.00;100355.53;5039161;28;20041;-73
2021/12/23 21:23:35;;;;;;;9.15;5.63;;;;;;;6.59;100.00;100353.66;5034787;28;20144;-73
2021/12/23 21:26:02;;;;;;;7.00;3.97;;;;;;;6.62;100.00;100358.66;5037429;28;20048;-72
2021/12/23 21:28:29;;;;;;;8.05;4.28;;;;;;;6.65;100.00;100358.47;5038065;28;20086;-73
2021/12/23 21:30:55;;;;;;;10.45;5.78;;;;;;;6.67;100.00;100361.81;5038278;28;20075;-72
2021/12/23 21:33:23;;;;;;;4.65;3.53;;;;;;;6.74;100.00;100349.13;5032872;28;20057;-73
2021/12/23 21:35:53;;;;;;;7.80;5.75;;;;;;;6.69;100.00;100346.84;5034646;28;20036;-72
2021/12/23 21:38:21;;;;;;;10.55;5.13;;;;;;;6.76;100.00;100352.47;5051440;28;20041;-73
2021/12/23 21:40:50;;;;;;;11.80;7.22;;;;;;;6.74;100.00;100363.03;5047951;28;20045;-73
2021/12/23 21:43:17;;;;;;;9.60;4.55;;;;;;;6.81;100.00;100360.84;5036346;28;20394;-73